sensor_id;sensor_type;location;lat;lon;timestamp;P1;durP1;ratioP1;P2;durP2;ratioP2
7573;SDS011;3828;48.922;9.116;2022-10-19T00:00:24;14.47;;;7.87;;
7573;SDS011;3828;48.922;9.116;2022-10-19T00:02:51;10.73;;;6.47;;
7573;SDS011;3828;48.922;9.116;2022-10-19T00:05:18;7.17;;;5.87;;
7573;SDS011;3828;48.922;9.116;2022-10-19T00:07:45;6.00;;;5.40;;
7573;SDS011;3828;48.922;9.116;2022-10-19T00:10:13;7.43;;;6.47;;
7573;SDS011;3828;48.922;9.116;2022-10-19T00:12:40;25.60;;;8.20;;
7573;SDS011;3828;48.922;9.116;2022-10-19T00:15:07;25.57;;;7.40;;
7573;SDS011;3828;48.922;9.116;2022-10-19T00:17:34;7.37;;;6.03;;
7573;SDS011;3828;48.922;9.116;2022-10-19T00:20:01;29.33;;;8.70;;
7573;SDS011;3828;48.922;9.116;2022-10-19T00:22:28;6.90;;;6.23;;
7573;SDS011;3828;48.922;9.116;2022-10-19T00:24:55;7.77;;;6.40;;
7573;SDS011;3828;48.922;9.116;2022-10-19T00:27:23;17.90;;;7.20;;
7573;SDS011;3828;48.922;9.116;2022-10-19T00:29:50;15.53;;;7.60;;
7573;SDS011;3828;48.922;9.116;2022-10-19T00:32:19;10.30;;;7.33;;
7573;SDS011;3828;48.922;9.116;2022-10-19T00:34:46;7.90;;;7.20;;
7573;SDS011;3828;48.922;9.116;2022-10-19T00:37:13;9.37;;;8.23;;
7573;SDS011;3828;48.922;9.116;2022-10-19T00:39:40;13.73;;;8.60;;
7573;SDS011;3828;48.922;9.116;2022-10-19T00:42:09;11.67;;;8.53;;
7573;SDS011;3828;48.922;9.116;2022-10-19T00:47:29;13.13;;;8.50;;
7573;SDS011;3828;48.922;9.116;2022-10-19T00:49:57;9.90;;;8.23;;
7573;SDS011;3828;48.922;9.116;2022-10-19T00:52:25;10.40;;;8.20;;
7573;SDS011;3828;48.922;9.116;2022-10-19T00:54:53;12.13;;;8.70;;
7573;SDS011;3828;48.922;9.116;2022-10-19T00:57:21;11.10;;;8.80;;
7573;SDS011;3828;48.922;9.116;2022-10-19T00:59:49;14.40;;;8.40;;
7573;SDS011;3828;48.922;9.116;2022-10-19T01:02:19;10.07;;;8.07;;
7573;SDS011;3828;48.922;9.116;2022-10-19T01:04:46;11.87;;;9.40;;
7573;SDS011;3828;48.922;9.116;2022-10-19T01:07:15;14.53;;;8.77;;
7573;SDS011;3828;48.922;9.116;2022-10-19T01:09:43;11.10;;;8.33;;
7573;SDS011;3828;48.922;9.116;2022-10-19T01:12:14;14.07;;;8.90;;
7573;SDS011;3828;48.922;9.116;2022-10-19T01:14:51;10.57;;;8.03;;
7573;SDS011;3828;48.922;9.116;2022-10-19T01:17:31;14.80;;;9.77;;
7573;SDS011;3828;48.922;9.116;2022-10-19T01:26:33;10.87;;;8.47;;
7573;SDS011;3828;48.922;9.116;2022-10-19T01:29:10;10.97;;;9.77;;
7573;SDS011;3828;48.922;9.116;2022-10-19T01:31:44;14.57;;;9.63;;
7573;SDS011;3828;48.922;9.116;2022-10-19T01:34:15;12.73;;;9.10;;
7573;SDS011;3828;48.922;9.116;2022-10-19T01:36:50;11.97;;;8.90;;
7573;SDS011;3828;48.922;9.116;2022-10-19T01:39:27;11.03;;;9.00;;
7573;SDS011;3828;48.922;9.116;2022-10-19T01:42:05;9.20;;;8.23;;
7573;SDS011;3828;48.922;9.116;2022-10-19T01:44:37;11.03;;;9.73;;
7573;SDS011;3828;48.922;9.116;2022-10-19T01:47:13;15.53;;;8.77;;
7573;SDS011;3828;48.922;9.116;2022-10-19T01:49:47;11.13;;;8.70;;
7573;SDS011;3828;48.922;9.116;2022-10-19T01:52:19;12.73;;;9.33;;
7573;SDS011;3828;48.922;9.116;2022-10-19T01:54:49;8.10;;;7.27;;
7573;SDS011;3828;48.922;9.116;2022-10-19T01:57:19;21.87;;;9.50;;
7573;SDS011;3828;48.922;9.116;2022-10-19T01:59:49;14.83;;;9.50;;
7573;SDS011;3828;48.922;9.116;2022-10-19T02:02:19;12.00;;;9.00;;
7573;SDS011;3828;48.922;9.116;2022-10-19T02:04:47;7.73;;;7.03;;
7573;SDS011;3828;48.922;9.116;2022-10-19T02:07:15;9.97;;;8.77;;
7573;SDS011;3828;48.922;9.116;2022-10-19T02:09:43;10.90;;;9.70;;
7573;SDS011;3828;48.922;9.116;2022-10-19T02:12:10;10.07;;;8.43;;
7573;SDS011;3828;48.922;9.116;2022-10-19T02:14:38;10.80;;;9.40;;
7573;SDS011;3828;48.922;9.116;2022-10-19T02:17:08;11.73;;;10.20;;
7573;SDS011;3828;48.922;9.116;2022-10-19T02:19:39;11.47;;;9.20;;
7573;SDS011;3828;48.922;9.116;2022-10-19T02:22:06;9.43;;;8.33;;
7573;SDS011;3828;48.922;9.116;2022-10-19T02:24:34;11.13;;;9.90;;
7573;SDS011;3828;48.922;9.116;2022-10-19T02:27:01;11.47;;;10.13;;
7573;SDS011;3828;48.922;9.116;2022-10-19T02:29:30;10.80;;;9.70;;
7573;SDS011;3828;48.922;9.116;2022-10-19T02:31:57;11.03;;;9.33;;
7573;SDS011;3828;48.922;9.116;2022-10-19T02:34:25;11.33;;;9.13;;
7573;SDS011;3828;48.922;9.116;2022-10-19T02:36:53;13.83;;;10.53;;
7573;SDS011;3828;48.922;9.116;2022-10-19T02:39:20;11.17;;;10.07;;
7573;SDS011;3828;48.922;9.116;2022-10-19T02:41:48;11.30;;;10.20;;
7573;SDS011;3828;48.922;9.116;2022-10-19T02:44:20;9.83;;;8.83;;
7573;SDS011;3828;48.922;9.116;2022-10-19T02:46:51;10.30;;;9.27;;
7573;SDS011;3828;48.922;9.116;2022-10-19T02:49:22;9.40;;;8.23;;
7573;SDS011;3828;48.922;9.116;2022-10-19T02:51:58;10.93;;;9.60;;
7573;SDS011;3828;48.922;9.116;2022-10-19T02:54:26;9.30;;;8.43;;
7573;SDS011;3828;48.922;9.116;2022-10-19T02:56:53;9.13;;;8.33;;
7573;SDS011;3828;48.922;9.116;2022-10-19T02:59:21;10.93;;;9.93;;
7573;SDS011;3828;48.922;9.116;2022-10-19T03:01:48;9.83;;;8.80;;
7573;SDS011;3828;48.922;9.116;2022-10-19T03:04:15;9.87;;;8.87;;
7573;SDS011;3828;48.922;9.116;2022-10-19T03:06:42;9.03;;;8.20;;
7573;SDS011;3828;48.922;9.116;2022-10-19T03:09:11;9.87;;;8.87;;
7573;SDS011;3828;48.922;9.116;2022-10-19T03:11:37;9.97;;;9.07;;
7573;SDS011;3828;48.922;9.116;2022-10-19T03:14:04;9.77;;;7.87;;
7573;SDS011;3828;48.922;9.116;2022-10-19T03:16:31;9.27;;;8.37;;
7573;SDS011;3828;48.922;9.116;2022-10-19T03:18:58;8.93;;;8.03;;
7573;SDS011;3828;48.922;9.116;2022-10-19T03:21:24;8.20;;;7.30;;
7573;SDS011;3828;48.922;9.116;2022-10-19T03:23:51;8.87;;;7.97;;
7573;SDS011;3828;48.922;9.116;2022-10-19T03:26:19;9.13;;;8.30;;
7573;SDS011;3828;48.922;9.116;2022-10-19T03:28:46;8.50;;;7.70;;
7573;SDS011;3828;48.922;9.116;2022-10-19T03:31:13;9.20;;;7.73;;
7573;SDS011;3828;48.922;9.116;2022-10-19T03:33:40;7.70;;;6.97;;
7573;SDS011;3828;48.922;9.116;2022-10-19T03:36:13;8.00;;;7.20;;
7573;SDS011;3828;48.922;9.116;2022-10-19T03:38:42;10.13;;;9.13;;
7573;SDS011;3828;48.922;9.116;2022-10-19T03:41:09;9.70;;;8.70;;
7573;SDS011;3828;48.922;9.116;2022-10-19T03:43:37;11.93;;;9.87;;
7573;SDS011;3828;48.922;9.116;2022-10-19T03:46:05;10.23;;;9.20;;
7573;SDS011;3828;48.922;9.116;2022-10-19T03:48:32;12.37;;;11.07;;
7573;SDS011;3828;48.922;9.116;2022-10-19T03:50:59;14.40;;;11.40;;
7573;SDS011;3828;48.922;9.116;2022-10-19T03:53:27;12.97;;;11.43;;
7573;SDS011;3828;48.922;9.116;2022-10-19T03:55:59;15.10;;;11.73;;
7573;SDS011;3828;48.922;9.116;2022-10-19T03:58:27;12.00;;;9.97;;
7573;SDS011;3828;48.922;9.116;2022-10-19T04:00:55;11.90;;;10.20;;
7573;SDS011;3828;48.922;9.116;2022-10-19T04:03:22;11.40;;;10.20;;
7573;SDS011;3828;48.922;9.116;2022-10-19T04:05:48;10.13;;;9.13;;
7573;SDS011;3828;48.922;9.116;2022-10-19T04:08:15;29.43;;;11.87;;
7573;SDS011;3828;48.922;9.116;2022-10-19T04:10:42;16.53;;;10.67;;
7573;SDS011;3828;48.922;9.116;2022-10-19T04:13:09;12.83;;;10.00;;
7573;SDS011;3828;48.922;9.116;2022-10-19T04:15:36;21.43;;;11.63;;
7573;SDS011;3828;48.922;9.116;2022-10-19T04:18:04;10.97;;;9.20;;
7573;SDS011;3828;48.922;9.116;2022-10-19T04:20:31;10.33;;;9.30;;
7573;SDS011;3828;48.922;9.116;2022-10-19T04:22:57;12.47;;;9.33;;
7573;SDS011;3828;48.922;9.116;2022-10-19T04:25:24;11.63;;;9.03;;
7573;SDS011;3828;48.922;9.116;2022-10-19T04:27:51;28.50;;;10.27;;
7573;SDS011;3828;48.922;9.116;2022-10-19T04:30:18;21.27;;;9.37;;
7573;SDS011;3828;48.922;9.116;2022-10-19T04:32:45;14.93;;;8.43;;
7573;SDS011;3828;48.922;9.116;2022-10-19T04:35:13;10.50;;;8.73;;
7573;SDS011;3828;48.922;9.116;2022-10-19T04:37:40;13.50;;;10.03;;
7573;SDS011;3828;48.922;9.116;2022-10-19T04:40:07;12.73;;;9.13;;
7573;SDS011;3828;48.922;9.116;2022-10-19T04:42:35;9.77;;;8.23;;
7573;SDS011;3828;48.922;9.116;2022-10-19T04:45:02;10.77;;;9.57;;
7573;SDS011;3828;48.922;9.116;2022-10-19T04:47:29;10.03;;;8.97;;
7573;SDS011;3828;48.922;9.116;2022-10-19T04:49:56;9.83;;;8.80;;
7573;SDS011;3828;48.922;9.116;2022-10-19T04:52:24;12.37;;;10.93;;
7573;SDS011;3828;48.922;9.116;2022-10-19T04:54:51;18.93;;;13.87;;
7573;SDS011;3828;48.922;9.116;2022-10-19T04:57:17;14.27;;;11.87;;
7573;SDS011;3828;48.922;9.116;2022-10-19T04:59:45;11.47;;;9.47;;
7573;SDS011;3828;48.922;9.116;2022-10-19T05:02:12;11.27;;;10.03;;
7573;SDS011;3828;48.922;9.116;2022-10-19T05:04:39;12.87;;;9.77;;
7573;SDS011;3828;48.922;9.116;2022-10-19T05:07:05;14.23;;;10.73;;
7573;SDS011;3828;48.922;9.116;2022-10-19T05:09:33;10.70;;;9.63;;
7573;SDS011;3828;48.922;9.116;2022-10-19T05:12:00;11.03;;;9.83;;
7573;SDS011;3828;48.922;9.116;2022-10-19T05:14:27;10.50;;;9.10;;
7573;SDS011;3828;48.922;9.116;2022-10-19T05:16:54;10.67;;;9.57;;
7573;SDS011;3828;48.922;9.116;2022-10-19T05:19:21;11.90;;;10.63;;
7573;SDS011;3828;48.922;9.116;2022-10-19T05:21:48;18.30;;;12.13;;
7573;SDS011;3828;48.922;9.116;2022-10-19T05:24:14;14.27;;;11.53;;
7573;SDS011;3828;48.922;9.116;2022-10-19T05:26:43;13.33;;;10.70;;
7573;SDS011;3828;48.922;9.116;2022-10-19T05:29:10;12.17;;;10.47;;
7573;SDS011;3828;48.922;9.116;2022-10-19T05:31:38;10.63;;;9.07;;
7573;SDS011;3828;48.922;9.116;2022-10-19T05:34:05;10.10;;;8.93;;
7573;SDS011;3828;48.922;9.116;2022-10-19T05:36:32;10.10;;;9.07;;
7573;SDS011;3828;48.922;9.116;2022-10-19T05:39:01;10.07;;;9.07;;
7573;SDS011;3828;48.922;9.116;2022-10-19T05:41:29;12.73;;;8.27;;
7573;SDS011;3828;48.922;9.116;2022-10-19T05:43:58;11.33;;;8.57;;
7573;SDS011;3828;48.922;9.116;2022-10-19T05:46:26;9.13;;;8.07;;
7573;SDS011;3828;48.922;9.116;2022-10-19T05:48:54;7.10;;;6.50;;
7573;SDS011;3828;48.922;9.116;2022-10-19T05:51:21;10.00;;;6.90;;
7573;SDS011;3828;48.922;9.116;2022-10-19T05:53:49;9.57;;;7.60;;
7573;SDS011;3828;48.922;9.116;2022-10-19T05:56:18;8.40;;;6.50;;
7573;SDS011;3828;48.922;9.116;2022-10-19T05:58:47;12.83;;;7.03;;
7573;SDS011;3828;48.922;9.116;2022-10-19T06:01:16;7.03;;;5.80;;
7573;SDS011;3828;48.922;9.116;2022-10-19T06:03:44;12.93;;;7.83;;
7573;SDS011;3828;48.922;9.116;2022-10-19T06:06:11;8.00;;;7.20;;
7573;SDS011;3828;48.922;9.116;2022-10-19T06:08:38;11.07;;;6.37;;
7573;SDS011;3828;48.922;9.116;2022-10-19T06:11:06;8.17;;;5.80;;
7573;SDS011;3828;48.922;9.116;2022-10-19T06:13:34;6.00;;;5.50;;
7573;SDS011;3828;48.922;9.116;2022-10-19T06:16:02;7.27;;;6.40;;
7573;SDS011;3828;48.922;9.116;2022-10-19T06:18:31;6.67;;;6.07;;
7573;SDS011;3828;48.922;9.116;2022-10-19T06:21:00;6.80;;;6.20;;
7573;SDS011;3828;48.922;9.116;2022-10-19T06:23:28;6.50;;;5.90;;
7573;SDS011;3828;48.922;9.116;2022-10-19T06:25:55;6.33;;;5.57;;
7573;SDS011;3828;48.922;9.116;2022-10-19T06:28:22;6.37;;;5.77;;
7573;SDS011;3828;48.922;9.116;2022-10-19T06:30:49;7.00;;;6.30;;
7573;SDS011;3828;48.922;9.116;2022-10-19T06:33:16;6.80;;;5.13;;
7573;SDS011;3828;48.922;9.116;2022-10-19T06:35:45;6.37;;;5.73;;
7573;SDS011;3828;48.922;9.116;2022-10-19T06:38:14;6.33;;;5.73;;
7573;SDS011;3828;48.922;9.116;2022-10-19T06:40:41;5.93;;;5.37;;
7573;SDS011;3828;48.922;9.116;2022-10-19T06:43:08;7.00;;;6.40;;
7573;SDS011;3828;48.922;9.116;2022-10-19T06:45:35;9.27;;;6.70;;
7573;SDS011;3828;48.922;9.116;2022-10-19T06:48:03;7.70;;;5.97;;
7573;SDS011;3828;48.922;9.116;2022-10-19T06:50:30;5.83;;;5.30;;
7573;SDS011;3828;48.922;9.116;2022-10-19T06:52:58;5.87;;;5.37;;
7573;SDS011;3828;48.922;9.116;2022-10-19T06:55:25;6.97;;;6.37;;
7573;SDS011;3828;48.922;9.116;2022-10-19T06:57:52;8.03;;;6.27;;
7573;SDS011;3828;48.922;9.116;2022-10-19T07:00:19;6.23;;;5.70;;
7573;SDS011;3828;48.922;9.116;2022-10-19T07:02:46;9.07;;;6.43;;
7573;SDS011;3828;48.922;9.116;2022-10-19T07:05:13;6.43;;;5.93;;
7573;SDS011;3828;48.922;9.116;2022-10-19T07:07:39;7.43;;;6.33;;
7573;SDS011;3828;48.922;9.116;2022-10-19T07:10:08;9.53;;;7.77;;
7573;SDS011;3828;48.922;9.116;2022-10-19T07:12:35;7.07;;;6.20;;
7573;SDS011;3828;48.922;9.116;2022-10-19T07:15:02;7.13;;;6.10;;
7573;SDS011;3828;48.922;9.116;2022-10-19T07:17:29;12.00;;;7.33;;
7573;SDS011;3828;48.922;9.116;2022-10-19T07:19:56;8.90;;;5.93;;
7573;SDS011;3828;48.922;9.116;2022-10-19T07:22:23;6.67;;;6.07;;
7573;SDS011;3828;48.922;9.116;2022-10-19T07:24:50;6.33;;;5.73;;
7573;SDS011;3828;48.922;9.116;2022-10-19T07:27:18;7.50;;;5.87;;
7573;SDS011;3828;48.922;9.116;2022-10-19T07:29:45;5.43;;;5.00;;
7573;SDS011;3828;48.922;9.116;2022-10-19T07:32:12;5.37;;;4.93;;
7573;SDS011;3828;48.922;9.116;2022-10-19T07:34:39;5.30;;;4.90;;
7573;SDS011;3828;48.922;9.116;2022-10-19T07:37:05;5.97;;;4.80;;
7573;SDS011;3828;48.922;9.116;2022-10-19T07:39:32;5.63;;;5.13;;
7573;SDS011;3828;48.922;9.116;2022-10-19T07:41:59;5.47;;;4.97;;
7573;SDS011;3828;48.922;9.116;2022-10-19T07:44:27;7.47;;;6.43;;
7573;SDS011;3828;48.922;9.116;2022-10-19T07:46:54;6.50;;;5.90;;
7573;SDS011;3828;48.922;9.116;2022-10-19T07:49:22;8.23;;;7.20;;
7573;SDS011;3828;48.922;9.116;2022-10-19T07:51:48;7.17;;;6.57;;
7573;SDS011;3828;48.922;9.116;2022-10-19T07:54:17;7.03;;;6.33;;
7573;SDS011;3828;48.922;9.116;2022-10-19T07:56:44;5.83;;;5.33;;
7573;SDS011;3828;48.922;9.116;2022-10-19T07:59:11;7.97;;;6.70;;
7573;SDS011;3828;48.922;9.116;2022-10-19T08:01:41;10.90;;;6.97;;
7573;SDS011;3828;48.922;9.116;2022-10-19T08:04:08;8.83;;;8.03;;
7573;SDS011;3828;48.922;9.116;2022-10-19T08:06:35;7.93;;;6.67;;
7573;SDS011;3828;48.922;9.116;2022-10-19T08:09:02;7.17;;;6.17;;
7573;SDS011;3828;48.922;9.116;2022-10-19T08:11:30;8.40;;;7.60;;
7573;SDS011;3828;48.922;9.116;2022-10-19T08:13:58;8.03;;;6.93;;
7573;SDS011;3828;48.922;9.116;2022-10-19T08:16:27;8.57;;;7.77;;
7573;SDS011;3828;48.922;9.116;2022-10-19T08:18:59;8.40;;;7.60;;
7573;SDS011;3828;48.922;9.116;2022-10-19T08:21:27;8.53;;;7.70;;
7573;SDS011;3828;48.922;9.116;2022-10-19T08:23:55;9.07;;;8.17;;
7573;SDS011;3828;48.922;9.116;2022-10-19T08:26:22;8.57;;;7.70;;
7573;SDS011;3828;48.922;9.116;2022-10-19T08:28:49;9.10;;;8.03;;
7573;SDS011;3828;48.922;9.116;2022-10-19T08:31:17;10.67;;;7.90;;
7573;SDS011;3828;48.922;9.116;2022-10-19T08:33:45;10.30;;;7.93;;
7573;SDS011;3828;48.922;9.116;2022-10-19T08:36:15;10.23;;;6.37;;
7573;SDS011;3828;48.922;9.116;2022-10-19T08:38:43;7.70;;;7.00;;
7573;SDS011;3828;48.922;9.116;2022-10-19T08:41:20;10.00;;;7.53;;
7573;SDS011;3828;48.922;9.116;2022-10-19T08:43:58;8.13;;;6.93;;
7573;SDS011;3828;48.922;9.116;2022-10-19T08:46:38;7.90;;;7.10;;
7573;SDS011;3828;48.922;9.116;2022-10-19T08:49:14;8.00;;;7.20;;
7573;SDS011;3828;48.922;9.116;2022-10-19T08:51:45;7.13;;;6.43;;
7573;SDS011;3828;48.922;9.116;2022-10-19T08:54:18;10.03;;;7.00;;
7573;SDS011;3828;48.922;9.116;2022-10-19T08:56:46;8.73;;;7.93;;
7573;SDS011;3828;48.922;9.116;2022-10-19T08:59:25;8.23;;;7.23;;
7573;SDS011;3828;48.922;9.116;2022-10-19T09:01:59;8.50;;;7.10;;
7573;SDS011;3828;48.922;9.116;2022-10-19T09:04:34;7.80;;;7.00;;
7573;SDS011;3828;48.922;9.116;2022-10-19T09:07:10;7.50;;;6.67;;
7573;SDS011;3828;48.922;9.116;2022-10-19T09:09:48;7.87;;;7.17;;
7573;SDS011;3828;48.922;9.116;2022-10-19T09:12:19;7.77;;;7.07;;
7573;SDS011;3828;48.922;9.116;2022-10-19T09:14:57;9.43;;;6.97;;
7573;SDS011;3828;48.922;9.116;2022-10-19T09:17:26;7.57;;;6.77;;
7573;SDS011;3828;48.922;9.116;2022-10-19T09:19:56;7.87;;;7.07;;
7573;SDS011;3828;48.922;9.116;2022-10-19T09:22:28;7.73;;;6.60;;
7573;SDS011;3828;48.922;9.116;2022-10-19T09:25:00;11.30;;;6.70;;
7573;SDS011;3828;48.922;9.116;2022-10-19T09:27:34;7.40;;;6.70;;
7573;SDS011;3828;48.922;9.116;2022-10-19T09:30:05;7.60;;;6.67;;
7573;SDS011;3828;48.922;9.116;2022-10-19T09:32:40;6.33;;;5.73;;
7573;SDS011;3828;48.922;9.116;2022-10-19T09:35:15;7.40;;;6.50;;
7573;SDS011;3828;48.922;9.116;2022-10-19T09:37:49;6.80;;;6.10;;
7573;SDS011;3828;48.922;9.116;2022-10-19T09:40:21;8.47;;;7.00;;
7573;SDS011;3828;48.922;9.116;2022-10-19T09:42:48;6.50;;;5.70;;
7573;SDS011;3828;48.922;9.116;2022-10-19T09:45:25;6.03;;;5.43;;
7573;SDS011;3828;48.922;9.116;2022-10-19T09:47:57;6.93;;;6.30;;
7573;SDS011;3828;48.922;9.116;2022-10-19T09:50:27;9.53;;;6.17;;
7573;SDS011;3828;48.922;9.116;2022-10-19T09:52:57;6.13;;;5.53;;
7573;SDS011;3828;48.922;9.116;2022-10-19T09:55:29;6.47;;;5.87;;
7573;SDS011;3828;48.922;9.116;2022-10-19T09:58:02;6.93;;;5.13;;
7573;SDS011;3828;48.922;9.116;2022-10-19T10:00:33;5.37;;;4.87;;
7573;SDS011;3828;48.922;9.116;2022-10-19T10:03:03;4.73;;;4.33;;
7573;SDS011;3828;48.922;9.116;2022-10-19T10:05:32;5.33;;;3.73;;
7573;SDS011;3828;48.922;9.116;2022-10-19T10:08:02;5.13;;;4.73;;
7573;SDS011;3828;48.922;9.116;2022-10-19T10:10:33;5.20;;;4.30;;
7573;SDS011;3828;48.922;9.116;2022-10-19T10:13:03;3.73;;;3.47;;
7573;SDS011;3828;48.922;9.116;2022-10-19T10:15:34;4.77;;;2.87;;
7573;SDS011;3828;48.922;9.116;2022-10-19T10:18:09;3.50;;;3.20;;
7573;SDS011;3828;48.922;9.116;2022-10-19T10:20:54;2.93;;;2.73;;
7573;SDS011;3828;48.922;9.116;2022-10-19T10:23:25;2.87;;;2.63;;
7573;SDS011;3828;48.922;9.116;2022-10-19T10:25:55;3.73;;;2.80;;
7573;SDS011;3828;48.922;9.116;2022-10-19T10:28:24;2.93;;;2.50;;
7573;SDS011;3828;48.922;9.116;2022-10-19T10:30:52;2.97;;;2.70;;
7573;SDS011;3828;48.922;9.116;2022-10-19T10:33:25;2.57;;;2.37;;
7573;SDS011;3828;48.922;9.116;2022-10-19T10:35:53;2.20;;;2.10;;
7573;SDS011;3828;48.922;9.116;2022-10-19T10:38:29;2.50;;;2.30;;
7573;SDS011;3828;48.922;9.116;2022-10-19T10:40:59;3.80;;;2.57;;
7573;SDS011;3828;48.922;9.116;2022-10-19T10:43:29;5.33;;;2.37;;
7573;SDS011;3828;48.922;9.116;2022-10-19T10:45:59;3.50;;;2.73;;
7573;SDS011;3828;48.922;9.116;2022-10-19T10:48:29;2.40;;;2.20;;
7573;SDS011;3828;48.922;9.116;2022-10-19T10:51:01;2.57;;;2.37;;
7573;SDS011;3828;48.922;9.116;2022-10-19T10:53:35;2.70;;;2.50;;
7573;SDS011;3828;48.922;9.116;2022-10-19T10:56:04;3.33;;;1.90;;
7573;SDS011;3828;48.922;9.116;2022-10-19T10:58:44;2.00;;;1.90;;
7573;SDS011;3828;48.922;9.116;2022-10-19T11:01:17;2.13;;;2.03;;
7573;SDS011;3828;48.922;9.116;2022-10-19T11:03:48;2.93;;;2.67;;
7573;SDS011;3828;48.922;9.116;2022-10-19T11:06:20;2.40;;;2.20;;
7573;SDS011;3828;48.922;9.116;2022-10-19T11:08:53;4.70;;;2.33;;
7573;SDS011;3828;48.922;9.116;2022-10-19T11:11:29;2.50;;;2.30;;
7573;SDS011;3828;48.922;9.116;2022-10-19T11:14:03;3.03;;;2.70;;
7573;SDS011;3828;48.922;9.116;2022-10-19T11:16:41;2.57;;;2.37;;
7573;SDS011;3828;48.922;9.116;2022-10-19T11:19:11;3.73;;;3.43;;
7573;SDS011;3828;48.922;9.116;2022-10-19T11:21:45;3.57;;;3.27;;
7573;SDS011;3828;48.922;9.116;2022-10-19T11:24:21;2.53;;;2.20;;
7573;SDS011;3828;48.922;9.116;2022-10-19T11:27:01;1.77;;;1.67;;
7573;SDS011;3828;48.922;9.116;2022-10-19T11:29:43;2.47;;;2.07;;
7573;SDS011;3828;48.922;9.116;2022-10-19T11:32:25;2.03;;;1.87;;
7573;SDS011;3828;48.922;9.116;2022-10-19T11:35:01;2.23;;;2.03;;
7573;SDS011;3828;48.922;9.116;2022-10-19T11:37:41;2.43;;;2.00;;
7573;SDS011;3828;48.922;9.116;2022-10-19T11:40:17;3.10;;;2.57;;
7573;SDS011;3828;48.922;9.116;2022-10-19T11:42:53;2.90;;;2.27;;
7573;SDS011;3828;48.922;9.116;2022-10-19T11:45:34;1.97;;;1.87;;
7573;SDS011;3828;48.922;9.116;2022-10-19T11:48:16;2.70;;;2.10;;
7573;SDS011;3828;48.922;9.116;2022-10-19T11:51:05;2.10;;;1.90;;
7573;SDS011;3828;48.922;9.116;2022-10-19T11:53:38;3.40;;;2.20;;
7573;SDS011;3828;48.922;9.116;2022-10-19T11:56:17;2.23;;;2.00;;
7573;SDS011;3828;48.922;9.116;2022-10-19T11:58:49;2.23;;;2.03;;
7573;SDS011;3828;48.922;9.116;2022-10-19T12:01:26;2.77;;;1.87;;
7573;SDS011;3828;48.922;9.116;2022-10-19T12:04:13;2.50;;;1.80;;
7573;SDS011;3828;48.922;9.116;2022-10-19T12:07:08;2.47;;;1.90;;
7573;SDS011;3828;48.922;9.116;2022-10-19T12:09:46;1.93;;;1.77;;
7573;SDS011;3828;48.922;9.116;2022-10-19T12:12:26;3.20;;;2.33;;
7573;SDS011;3828;48.922;9.116;2022-10-19T12:15:00;1.60;;;1.50;;
7573;SDS011;3828;48.922;9.116;2022-10-19T12:17:38;1.80;;;1.70;;
7573;SDS011;3828;48.922;9.116;2022-10-19T12:20:12;2.47;;;2.27;;
7573;SDS011;3828;48.922;9.116;2022-10-19T12:22:45;2.73;;;1.60;;
7573;SDS011;3828;48.922;9.116;2022-10-19T12:25:13;2.57;;;1.87;;
7573;SDS011;3828;48.922;9.116;2022-10-19T12:27:44;2.33;;;1.90;;
7573;SDS011;3828;48.922;9.116;2022-10-19T12:30:16;1.90;;;1.80;;
7573;SDS011;3828;48.922;9.116;2022-10-19T12:32:57;1.93;;;1.83;;
7573;SDS011;3828;48.922;9.116;2022-10-19T12:35:38;4.77;;;2.17;;
7573;SDS011;3828;48.922;9.116;2022-10-19T12:38:18;2.00;;;1.90;;
7573;SDS011;3828;48.922;9.116;2022-10-19T12:40:52;1.80;;;1.70;;
7573;SDS011;3828;48.922;9.116;2022-10-19T12:43:27;3.13;;;1.97;;
7573;SDS011;3828;48.922;9.116;2022-10-19T12:46:06;1.60;;;1.50;;
7573;SDS011;3828;48.922;9.116;2022-10-19T12:48:43;2.60;;;1.50;;
7573;SDS011;3828;48.922;9.116;2022-10-19T12:51:13;2.10;;;2.00;;
7573;SDS011;3828;48.922;9.116;2022-10-19T12:53:43;2.00;;;1.80;;
7573;SDS011;3828;48.922;9.116;2022-10-19T12:56:19;1.97;;;1.77;;
7573;SDS011;3828;48.922;9.116;2022-10-19T12:58:50;1.63;;;1.50;;
7573;SDS011;3828;48.922;9.116;2022-10-19T13:01:24;1.63;;;1.53;;
7573;SDS011;3828;48.922;9.116;2022-10-19T13:03:53;2.20;;;1.70;;
7573;SDS011;3828;48.922;9.116;2022-10-19T13:06:33;3.47;;;1.80;;
7573;SDS011;3828;48.922;9.116;2022-10-19T13:09:02;2.47;;;1.40;;
7573;SDS011;3828;48.922;9.116;2022-10-19T13:11:31;2.67;;;1.50;;
7573;SDS011;3828;48.922;9.116;2022-10-19T13:14:01;2.40;;;2.20;;
7573;SDS011;3828;48.922;9.116;2022-10-19T13:16:31;1.97;;;1.80;;
7573;SDS011;3828;48.922;9.116;2022-10-19T13:19:18;1.87;;;1.73;;
7573;SDS011;3828;48.922;9.116;2022-10-19T13:21:50;1.73;;;1.60;;
7573;SDS011;3828;48.922;9.116;2022-10-19T13:24:38;2.30;;;2.10;;
7573;SDS011;3828;48.922;9.116;2022-10-19T13:30:05;3.10;;;1.97;;
7573;SDS011;3828;48.922;9.116;2022-10-19T13:33:35;6.00;;;1.70;;
7573;SDS011;3828;48.922;9.116;2022-10-19T13:36:08;2.17;;;1.50;;
7573;SDS011;3828;48.922;9.116;2022-10-19T13:38:36;2.90;;;2.67;;
7573;SDS011;3828;48.922;9.116;2022-10-19T13:41:05;2.23;;;1.93;;
7573;SDS011;3828;48.922;9.116;2022-10-19T13:43:39;5.37;;;2.20;;
7573;SDS011;3828;48.922;9.116;2022-10-19T13:46:19;1.90;;;1.63;;
7573;SDS011;3828;48.922;9.116;2022-10-19T13:51:52;2.03;;;1.60;;
7573;SDS011;3828;48.922;9.116;2022-10-19T13:54:34;2.40;;;1.90;;
7573;SDS011;3828;48.922;9.116;2022-10-19T13:57:15;3.10;;;2.20;;
7573;SDS011;3828;48.922;9.116;2022-10-19T14:02:56;2.50;;;1.60;;
7573;SDS011;3828;48.922;9.116;2022-10-19T14:08:31;3.33;;;2.30;;
7573;SDS011;3828;48.922;9.116;2022-10-19T14:11:11;2.40;;;2.13;;
7573;SDS011;3828;48.922;9.116;2022-10-19T14:13:40;2.67;;;2.23;;
7573;SDS011;3828;48.922;9.116;2022-10-19T14:16:14;1.60;;;1.50;;
7573;SDS011;3828;48.922;9.116;2022-10-19T14:18:50;1.47;;;1.37;;
7573;SDS011;3828;48.922;9.116;2022-10-19T14:21:27;4.60;;;1.77;;
7573;SDS011;3828;48.922;9.116;2022-10-19T14:23:57;2.00;;;1.90;;
7573;SDS011;3828;48.922;9.116;2022-10-19T14:26:24;2.23;;;2.00;;
7573;SDS011;3828;48.922;9.116;2022-10-19T14:28:55;4.43;;;1.80;;
7573;SDS011;3828;48.922;9.116;2022-10-19T14:31:25;4.43;;;1.90;;
7573;SDS011;3828;48.922;9.116;2022-10-19T14:33:57;1.77;;;1.63;;
7573;SDS011;3828;48.922;9.116;2022-10-19T14:36:30;1.70;;;1.60;;
7573;SDS011;3828;48.922;9.116;2022-10-19T14:39:02;2.67;;;2.03;;
7573;SDS011;3828;48.922;9.116;2022-10-19T14:41:30;2.20;;;1.60;;
7573;SDS011;3828;48.922;9.116;2022-10-19T14:44:01;2.30;;;2.13;;
7573;SDS011;3828;48.922;9.116;2022-10-19T14:46:45;1.60;;;1.37;;
7573;SDS011;3828;48.922;9.116;2022-10-19T14:49:14;2.67;;;1.60;;
7573;SDS011;3828;48.922;9.116;2022-10-19T14:51:41;1.70;;;1.60;;
7573;SDS011;3828;48.922;9.116;2022-10-19T14:54:15;1.60;;;1.50;;
7573;SDS011;3828;48.922;9.116;2022-10-19T14:56:49;2.50;;;1.83;;
7573;SDS011;3828;48.922;9.116;2022-10-19T14:59:20;1.63;;;1.53;;
7573;SDS011;3828;48.922;9.116;2022-10-19T15:01:49;3.13;;;2.20;;
7573;SDS011;3828;48.922;9.116;2022-10-19T15:04:20;1.97;;;1.63;;
7573;SDS011;3828;48.922;9.116;2022-10-19T15:06:50;2.00;;;1.80;;
7573;SDS011;3828;48.922;9.116;2022-10-19T15:09:19;2.20;;;1.77;;
7573;SDS011;3828;48.922;9.116;2022-10-19T15:11:50;1.90;;;1.80;;
7573;SDS011;3828;48.922;9.116;2022-10-19T15:14:19;1.33;;;1.23;;
7573;SDS011;3828;48.922;9.116;2022-10-19T15:16:49;2.17;;;1.97;;
7573;SDS011;3828;48.922;9.116;2022-10-19T15:19:18;1.90;;;1.80;;
7573;SDS011;3828;48.922;9.116;2022-10-19T15:22:04;3.90;;;1.90;;
7573;SDS011;3828;48.922;9.116;2022-10-19T15:24:39;4.57;;;1.93;;
7573;SDS011;3828;48.922;9.116;2022-10-19T15:27:07;3.07;;;2.33;;
7573;SDS011;3828;48.922;9.116;2022-10-19T15:29:34;1.57;;;1.47;;
7573;SDS011;3828;48.922;9.116;2022-10-19T15:32:11;3.03;;;2.10;;
7573;SDS011;3828;48.922;9.116;2022-10-19T15:34:45;1.93;;;1.80;;
7573;SDS011;3828;48.922;9.116;2022-10-19T15:37:15;1.97;;;1.87;;
7573;SDS011;3828;48.922;9.116;2022-10-19T15:39:46;2.53;;;2.33;;
7573;SDS011;3828;48.922;9.116;2022-10-19T15:42:20;2.10;;;1.97;;
7573;SDS011;3828;48.922;9.116;2022-10-19T15:44:48;2.57;;;2.20;;
7573;SDS011;3828;48.922;9.116;2022-10-19T15:47:20;4.80;;;2.50;;
7573;SDS011;3828;48.922;9.116;2022-10-19T15:49:52;2.60;;;2.40;;
7573;SDS011;3828;48.922;9.116;2022-10-19T15:52:21;1.87;;;1.77;;